sensor_id;sensor_type;location;lat;lon;timestamp;pressure;altitude;pressure_sealevel;temperature;humidity
32873;BME280;19224;52.462;16.898;2022-09-09T00:01:51;99789.77;;;18.24;100.00
32873;BME280;19224;52.462;16.898;2022-09-09T00:04:30;99785.17;;;18.25;100.00
32873;BME280;19224;52.462;16.898;2022-09-09T00:07:50;99785.05;;;18.26;100.00
32873;BME280;19224;52.462;16.898;2022-09-09T00:13:30;99777.87;;;18.25;100.00
32873;BME280;19224;52.462;16.898;2022-09-09T00:16:25;99772.69;;;18.22;100.00
32873;BME280;19224;52.462;16.898;2022-09-09T00:22:04;99765.73;;;18.18;100.00
32873;BME280;19224;52.462;16.898;2022-09-09T00:30:23;99773.31;;;18.09;100.00
32873;BME280;19224;52.462;16.898;2022-09-09T00:33:11;99778.41;;;18.08;100.00
32873;BME280;19224;52.462;16.898;2022-09-09T00:35:55;99781.13;;;18.08;100.00
32873;BME280;19224;52.462;16.898;2022-09-09T00:38:28;99776.81;;;18.11;100.00
32873;BME280;19224;52.462;16.898;2022-09-09T00:56:18;99781.36;;;18.16;100.00
32873;BME280;19224;52.462;16.898;2022-09-09T01:01:44;99782.36;;;18.15;100.00
32873;BME280;19224;52.462;16.898;2022-09-09T01:04:19;99792.38;;;18.15;100.00
32873;BME280;19224;52.462;16.898;2022-09-09T01:06:55;99791.39;;;18.16;100.00
32873;BME280;19224;52.462;16.898;2022-09-09T01:09:42;99796.98;;;18.14;100.00
32873;BME280;19224;52.462;16.898;2022-09-09T01:12:43;99790.80;;;18.12;100.00
32873;BME280;19224;52.462;16.898;2022-09-09T01:15:24;99796.73;;;18.12;100.00
32873;BME280;19224;52.462;16.898;2022-09-09T01:18:11;99799.21;;;18.09;100.00
32873;BME280;19224;52.462;16.898;2022-09-09T01:21:18;99795.37;;;18.12;100.00
32873;BME280;19224;52.462;16.898;2022-09-09T01:24:20;99797.12;;;18.07;100.00
32873;BME280;19224;52.462;16.898;2022-09-09T01:26:58;99796.50;;;18.04;100.00
32873;BME280;19224;52.462;16.898;2022-09-09T01:29:28;99799.00;;;18.01;100.00
32873;BME280;19224;52.462;16.898;2022-09-09T01:32:35;99803.47;;;17.97;100.00
32873;BME280;19224;52.462;16.898;2022-09-09T01:34:38;99804.95;;;17.95;100.00
32873;BME280;19224;52.462;16.898;2022-09-09T01:37:10;99807.67;;;17.95;100.00
32873;BME280;19224;52.462;16.898;2022-09-09T01:39:44;99815.97;;;17.94;100.00
32873;BME280;19224;52.462;16.898;2022-09-09T01:42:16;99820.46;;;17.89;100.00
32873;BME280;19224;52.462;16.898;2022-09-09T01:44:50;99818.22;;;17.83;100.00
32873;BME280;19224;52.462;16.898;2022-09-09T01:47:24;99818.84;;;17.81;100.00
32873;BME280;19224;52.462;16.898;2022-09-09T01:49:54;99823.20;;;17.78;100.00
32873;BME280;19224;52.462;16.898;2022-09-09T01:52:25;99823.94;;;17.75;100.00
32873;BME280;19224;52.462;16.898;2022-09-09T01:54:55;99819.23;;;17.71;100.00
32873;BME280;19224;52.462;16.898;2022-09-09T02:00:25;99821.70;;;17.63;100.00
32873;BME280;19224;52.462;16.898;2022-09-09T02:03:15;99817.75;;;17.56;100.00
32873;BME280;19224;52.462;16.898;2022-09-09T02:05:49;99819.12;;;17.51;100.00
32873;BME280;19224;52.462;16.898;2022-09-09T02:08:48;99815.77;;;17.47;100.00
32873;BME280;19224;52.462;16.898;2022-09-09T02:11:23;99820.59;;;17.44;100.00
32873;BME280;19224;52.462;16.898;2022-09-09T02:14:23;99826.77;;;17.40;100.00
32873;BME280;19224;52.462;16.898;2022-09-09T02:16:55;99831.73;;;17.35;100.00
32873;BME280;19224;52.462;16.898;2022-09-09T02:19:35;99827.83;;;17.32;100.00
32873;BME280;19224;52.462;16.898;2022-09-09T02:22:11;99828.70;;;17.27;100.00
32873;BME280;19224;52.462;16.898;2022-09-09T02:24:43;99833.41;;;17.25;100.00
32873;BME280;19224;52.462;16.898;2022-09-09T02:27:18;99830.69;;;17.25;100.00
32873;BME280;19224;52.462;16.898;2022-09-09T02:29:56;99840.70;;;17.25;100.00
32873;BME280;19224;52.462;16.898;2022-09-09T02:32:29;99840.33;;;17.24;100.00
32873;BME280;19224;52.462;16.898;2022-09-09T02:35:14;99844.30;;;17.25;100.00
32873;BME280;19224;52.462;16.898;2022-09-09T02:37:41;99846.28;;;17.23;100.00
32873;BME280;19224;52.462;16.898;2022-09-09T02:40:14;99839.11;;;17.22;100.00
32873;BME280;19224;52.462;16.898;2022-09-09T02:42:47;99835.98;;;17.21;100.00
32873;BME280;19224;52.462;16.898;2022-09-09T02:45:24;99845.51;;;17.21;100.00
32873;BME280;19224;52.462;16.898;2022-09-09T02:48:17;99841.94;;;17.21;100.00
32873;BME280;19224;52.462;16.898;2022-09-09T02:50:56;99846.64;;;17.19;100.00
32873;BME280;19224;52.462;16.898;2022-09-09T02:53:32;99848.85;;;17.19;100.00
32873;BME280;19224;52.462;16.898;2022-09-09T02:56:11;99849.47;;;17.17;100.00
32873;BME280;19224;52.462;16.898;2022-09-09T02:58:41;99854.80;;;17.19;100.00
32873;BME280;19224;52.462;16.898;2022-09-09T03:01:15;99854.80;;;17.19;100.00
32873;BME280;19224;52.462;16.898;2022-09-09T03:03:49;99857.17;;;17.23;100.00
32873;BME280;19224;52.462;16.898;2022-09-09T03:06:19;99857.91;;;17.25;100.00
32873;BME280;19224;52.462;16.898;2022-09-09T03:08:51;99863.34;;;17.20;100.00
32873;BME280;19224;52.462;16.898;2022-09-09T03:11:21;99863.45;;;17.18;100.00
32873;BME280;19224;52.462;16.898;2022-09-09T03:13:53;99861.09;;;17.19;100.00
32873;BME280;19224;52.462;16.898;2022-09-09T03:16:25;99862.97;;;17.19;100.00
32873;BME280;19224;52.462;16.898;2022-09-09T03:18:55;99865.06;;;17.15;100.00
32873;BME280;19224;52.462;16.898;2022-09-09T03:21:30;99870.97;;;17.09;100.00
32873;BME280;19224;52.462;16.898;2022-09-09T03:23:59;99865.31;;;17.12;100.00
32873;BME280;19224;52.462;16.898;2022-09-09T03:26:34;99858.73;;;17.15;100.00
32873;BME280;19224;52.462;16.898;2022-09-09T03:29:06;99859.88;;;17.18;100.00
32873;BME280;19224;52.462;16.898;2022-09-09T03:31:40;99863.72;;;17.21;100.00
32873;BME280;19224;52.462;16.898;2022-09-09T03:34:13;99865.92;;;17.21;100.00
32873;BME280;19224;52.462;16.898;2022-09-09T03:36:44;99871.00;;;17.20;100.00
32873;BME280;19224;52.462;16.898;2022-09-09T03:39:17;99869.79;;;17.24;100.00
32873;BME280;19224;52.462;16.898;2022-09-09T03:41:47;99880.65;;;17.13;100.00
32873;BME280;19224;52.462;16.898;2022-09-09T03:44:18;99875.70;;;17.18;100.00
32873;BME280;19224;52.462;16.898;2022-09-09T03:46:48;99878.55;;;17.11;100.00
32873;BME280;19224;52.462;16.898;2022-09-09T03:49:19;99878.92;;;17.12;100.00
32873;BME280;19224;52.462;16.898;2022-09-09T03:51:50;99873.31;;;17.08;100.00
32873;BME280;19224;52.462;16.898;2022-09-09T03:54:22;99882.62;;;17.11;100.00
32873;BME280;19224;52.462;16.898;2022-09-09T03:56:54;99879.29;;;17.13;100.00
32873;BME280;19224;52.462;16.898;2022-09-09T03:59:25;99886.84;;;17.15;100.00
32873;BME280;19224;52.462;16.898;2022-09-09T04:01:55;99899.93;;;17.16;100.00
32873;BME280;19224;52.462;16.898;2022-09-09T04:04:28;99896.85;;;17.20;100.00
32873;BME280;19224;52.462;16.898;2022-09-09T04:07:04;99892.65;;;17.16;100.00
32873;BME280;19224;52.462;16.898;2022-09-09T04:09:42;99894.47;;;17.10;100.00
32873;BME280;19224;52.462;16.898;2022-09-09T04:12:13;99888.66;;;17.09;100.00
32873;BME280;19224;52.462;16.898;2022-09-09T04:14:46;99896.23;;;17.11;100.00
32873;BME280;19224;52.462;16.898;2022-09-09T04:17:17;99891.01;;;17.08;100.00
32873;BME280;19224;52.462;16.898;2022-09-09T04:19:49;99894.36;;;17.12;100.00
32873;BME280;19224;52.462;16.898;2022-09-09T04:22:19;99900.07;;;17.14;100.00
32873;BME280;19224;52.462;16.898;2022-09-09T04:24:51;99908.36;;;17.18;100.00
32873;BME280;19224;52.462;16.898;2022-09-09T04:27:22;99907.53;;;17.23;100.00
32873;BME280;19224;52.462;16.898;2022-09-09T04:29:52;99909.73;;;17.24;100.00
32873;BME280;19224;52.462;16.898;2022-09-09T04:32:24;99905.53;;;17.20;100.00
32873;BME280;19224;52.462;16.898;2022-09-09T04:34:56;99900.94;;;17.20;100.00
32873;BME280;19224;52.462;16.898;2022-09-09T04:37:26;99906.75;;;17.21;100.00
32873;BME280;19224;52.462;16.898;2022-09-09T04:39:57;99903.28;;;17.19;100.00
32873;BME280;19224;52.462;16.898;2022-09-09T04:42:29;99907.16;;;17.22;100.00
32873;BME280;19224;52.462;16.898;2022-09-09T04:45:00;99916.17;;;17.23;100.00
32873;BME280;19224;52.462;16.898;2022-09-09T04:47:32;99918.63;;;17.20;100.00
32873;BME280;19224;52.462;16.898;2022-09-09T04:50:04;99915.89;;;17.15;100.00
32873;BME280;19224;52.462;16.898;2022-09-09T04:52:36;99922.17;;;17.04;100.00
32873;BME280;19224;52.462;16.898;2022-09-09T04:55:08;99924.61;;;16.96;100.00
32873;BME280;19224;52.462;16.898;2022-09-09T04:57:39;99924.85;;;16.93;100.00
32873;BME280;19224;52.462;16.898;2022-09-09T05:00:11;99931.39;;;16.91;100.00
32873;BME280;19224;52.462;16.898;2022-09-09T05:02:42;99930.34;;;16.81;100.00
32873;BME280;19224;52.462;16.898;2022-09-09T05:05:14;99925.79;;;16.82;100.00
32873;BME280;19224;52.462;16.898;2022-09-09T05:07:45;99930.16;;;16.90;100.00
32873;BME280;19224;52.462;16.898;2022-09-09T05:10:17;99936.54;;;16.78;100.00
32873;BME280;19224;52.462;16.898;2022-09-09T05:12:56;99937.77;;;16.79;100.00
32873;BME280;19224;52.462;16.898;2022-09-09T05:15:26;99937.97;;;16.71;100.00
32873;BME280;19224;52.462;16.898;2022-09-09T05:18:01;99935.79;;;16.81;100.00
32873;BME280;19224;52.462;16.898;2022-09-09T05:20:32;99937.66;;;16.81;100.00
32873;BME280;19224;52.462;16.898;2022-09-09T05:23:03;99936.91;;;16.79;100.00
32873;BME280;19224;52.462;16.898;2022-09-09T05:25:35;99943.74;;;16.84;100.00
32873;BME280;19224;52.462;16.898;2022-09-09T05:28:05;99947.87;;;16.95;100.00
32873;BME280;19224;52.462;16.898;2022-09-09T05:30:36;99945.17;;;17.00;100.00
32873;BME280;19224;52.462;16.898;2022-09-09T05:33:06;99949.63;;;17.01;100.00
32873;BME280;19224;52.462;16.898;2022-09-09T05:35:39;99949.72;;;16.94;100.00
32873;BME280;19224;52.462;16.898;2022-09-09T05:38:11;99945.16;;;16.95;100.00
32873;BME280;19224;52.462;16.898;2022-09-09T05:40:49;99951.12;;;17.05;100.00
32873;BME280;19224;52.462;16.898;2022-09-09T05:43:21;99944.08;;;17.08;100.00
32873;BME280;19224;52.462;16.898;2022-09-09T05:46:07;99952.77;;;17.13;100.00
32873;BME280;19224;52.462;16.898;2022-09-09T05:48:44;99964.64;;;17.12;100.00
32873;BME280;19224;52.462;16.898;2022-09-09T05:51:24;99954.11;;;17.08;100.00
32873;BME280;19224;52.462;16.898;2022-09-09T05:53:59;99949.77;;;17.05;100.00
32873;BME280;19224;52.462;16.898;2022-09-09T05:56:30;99953.39;;;17.11;100.00
32873;BME280;19224;52.462;16.898;2022-09-09T05:59:03;99950.81;;;17.21;100.00
32873;BME280;19224;52.462;16.898;2022-09-09T06:01:36;99951.10;;;17.29;100.00
32873;BME280;19224;52.462;16.898;2022-09-09T06:04:09;99951.91;;;17.18;100.00
32873;BME280;19224;52.462;16.898;2022-09-09T06:06:40;99959.00;;;17.26;100.00
32873;BME280;19224;52.462;16.898;2022-09-09T06:09:11;99955.84;;;17.38;100.00
32873;BME280;19224;52.462;16.898;2022-09-09T06:11:44;99955.37;;;17.44;100.00
32873;BME280;19224;52.462;16.898;2022-09-09T06:14:15;99960.46;;;17.48;100.00
32873;BME280;19224;52.462;16.898;2022-09-09T06:16:47;99960.37;;;17.55;100.00
32873;BME280;19224;52.462;16.898;2022-09-09T06:19:19;99956.77;;;17.60;100.00
32873;BME280;19224;52.462;16.898;2022-09-09T06:21:50;99962.98;;;17.73;100.00
32873;BME280;19224;52.462;16.898;2022-09-09T06:24:21;99967.60;;;17.84;100.00
32873;BME280;19224;52.462;16.898;2022-09-09T06:26:57;99961.38;;;17.87;100.00
32873;BME280;19224;52.462;16.898;2022-09-09T06:29:27;99969.56;;;17.98;100.00
32873;BME280;19224;52.462;16.898;2022-09-09T06:31:57;99963.75;;;18.08;100.00
32873;BME280;19224;52.462;16.898;2022-09-09T06:34:29;99958.08;;;18.06;100.00
32873;BME280;19224;52.462;16.898;2022-09-09T06:37:01;99957.09;;;18.12;100.00
32873;BME280;19224;52.462;16.898;2022-09-09T06:39:34;99963.53;;;18.17;100.00
32873;BME280;19224;52.462;16.898;2022-09-09T06:42:05;99963.90;;;18.12;100.00
32873;BME280;19224;52.462;16.898;2022-09-09T06:44:37;99965.48;;;18.09;100.00
32873;BME280;19224;52.462;16.898;2022-09-09T06:47:09;99970.82;;;18.00;100.00
32873;BME280;19224;52.462;16.898;2022-09-09T06:49:44;99966.85;;;18.15;100.00
32873;BME280;19224;52.462;16.898;2022-09-09T06:52:14;99962.91;;;18.24;100.00
32873;BME280;19224;52.462;16.898;2022-09-09T06:54:46;99970.75;;;18.34;100.00
32873;BME280;19224;52.462;16.898;2022-09-09T06:57:16;99971.72;;;18.50;100.00
32873;BME280;19224;52.462;16.898;2022-09-09T06:59:46;99968.00;;;18.45;100.00
32873;BME280;19224;52.462;16.898;2022-09-09T07:02:17;99967.85;;;18.52;100.00
32873;BME280;19224;52.462;16.898;2022-09-09T07:04:48;99964.39;;;18.50;100.00
32873;BME280;19224;52.462;16.898;2022-09-09T07:07:22;99971.72;;;18.55;100.00
32873;BME280;19224;52.462;16.898;2022-09-09T07:09:53;99973.66;;;18.64;100.00
32873;BME280;19224;52.462;16.898;2022-09-09T07:12:24;99971.76;;;18.87;100.00
32873;BME280;19224;52.462;16.898;2022-09-09T07:14:55;99967.23;;;19.08;100.00
32873;BME280;19224;52.462;16.898;2022-09-09T07:17:25;99972.66;;;19.24;100.00
32873;BME280;19224;52.462;16.898;2022-09-09T07:19:58;99968.06;;;19.19;100.00
32873;BME280;19224;52.462;16.898;2022-09-09T07:22:29;99970.66;;;19.26;100.00
32873;BME280;19224;52.462;16.898;2022-09-09T07:25:00;99973.36;;;19.32;100.00
32873;BME280;19224;52.462;16.898;2022-09-09T07:27:31;99976.55;;;19.37;100.00
32873;BME280;19224;52.462;16.898;2022-09-09T07:30:03;99973.62;;;19.29;100.00
32873;BME280;19224;52.462;16.898;2022-09-09T07:32:33;99976.39;;;19.23;100.00
32873;BME280;19224;52.462;16.898;2022-09-09T07:35:03;99976.03;;;19.11;100.00
32873;BME280;19224;52.462;16.898;2022-09-09T07:37:36;99978.27;;;19.06;100.00
32873;BME280;19224;52.462;16.898;2022-09-09T07:40:08;99975.80;;;19.03;100.00
32873;BME280;19224;52.462;16.898;2022-09-09T07:42:44;99974.78;;;19.10;100.00
32873;BME280;19224;52.462;16.898;2022-09-09T07:45:21;99973.77;;;19.16;100.00
32873;BME280;19224;52.462;16.898;2022-09-09T07:47:53;99973.41;;;19.21;100.00
32873;BME280;19224;52.462;16.898;2022-09-09T07:50:30;99982.21;;;19.24;100.00
32873;BME280;19224;52.462;16.898;2022-09-09T07:53:04;99980.70;;;19.26;100.00
32873;BME280;19224;52.462;16.898;2022-09-09T07:55:37;99984.53;;;19.34;100.00
32873;BME280;19224;52.462;16.898;2022-09-09T07:58:10;99984.33;;;19.47;100.00
32873;BME280;19224;52.462;16.898;2022-09-09T08:00:41;99988.36;;;19.57;100.00
32873;BME280;19224;52.462;16.898;2022-09-09T08:03:12;99991.22;;;19.61;100.00
32873;BME280;19224;52.462;16.898;2022-09-09T08:05:47;99991.19;;;19.67;100.00
32873;BME280;19224;52.462;16.898;2022-09-09T08:08:19;99993.28;;;19.69;100.00
32873;BME280;19224;52.462;16.898;2022-09-09T08:10:49;99994.73;;;19.73;100.00
32873;BME280;19224;52.462;16.898;2022-09-09T08:13:21;99996.19;;;19.77;100.00
32873;BME280;19224;52.462;16.898;2022-09-09T08:15:54;99997.12;;;19.87;100.00
32873;BME280;19224;52.462;16.898;2022-09-09T08:18:26;99995.52;;;19.90;100.00
32873;BME280;19224;52.462;16.898;2022-09-09T08:20:57;99999.06;;;19.96;100.00
32873;BME280;19224;52.462;16.898;2022-09-09T08:23:28;99998.42;;;19.98;100.00
32873;BME280;19224;52.462;16.898;2022-09-09T08:26:13;100007.91;;;19.94;100.00
32873;BME280;19224;52.462;16.898;2022-09-09T08:28:42;99999.98;;;19.91;100.00
32873;BME280;19224;52.462;16.898;2022-09-09T08:31:16;100012.16;;;19.87;100.00
32873;BME280;19224;52.462;16.898;2022-09-09T08:33:48;100008.18;;;19.91;100.00
32873;BME280;19224;52.462;16.898;2022-09-09T08:36:21;100009.27;;;19.94;100.00
32873;BME280;19224;52.462;16.898;2022-09-09T08:38:59;100010.84;;;20.02;100.00
32873;BME280;19224;52.462;16.898;2022-09-09T08:47:35;100007.77;;;20.31;100.00
32873;BME280;19224;52.462;16.898;2022-09-09T08:50:21;100013.36;;;20.35;100.00
32873;BME280;19224;52.462;16.898;2022-09-09T08:58:31;100022.12;;;20.44;100.00
32873;BME280;19224;52.462;16.898;2022-09-09T09:01:45;100018.45;;;20.49;100.00
32873;BME280;19224;52.462;16.898;2022-09-09T09:04:37;100022.84;;;20.46;100.00
32873;BME280;19224;52.462;16.898;2022-09-09T09:13:03;100013.79;;;20.70;100.00
32873;BME280;19224;52.462;16.898;2022-09-09T09:16:03;100015.41;;;20.82;100.00
32873;BME280;19224;52.462;16.898;2022-09-09T09:18:34;100013.73;;;20.90;100.00
32873;BME280;19224;52.462;16.898;2022-09-09T09:21:28;100011.70;;;20.92;100.00
32873;BME280;19224;52.462;16.898;2022-09-09T09:23:59;100006.39;;;20.91;100.00
32873;BME280;19224;52.462;16.898;2022-09-09T09:26:34;100011.39;;;21.01;100.00
32873;BME280;19224;52.462;16.898;2022-09-09T09:29:16;100013.36;;;21.14;100.00
32873;BME280;19224;52.462;16.898;2022-09-09T09:31:52;100009.91;;;21.21;100.00
32873;BME280;19224;52.462;16.898;2022-09-09T09:34:25;100010.19;;;21.28;100.00
32873;BME280;19224;52.462;16.898;2022-09-09T09:37:00;100011.78;;;21.40;100.00
32873;BME280;19224;52.462;16.898;2022-09-09T09:39:39;100017.35;;;21.53;100.00
32873;BME280;19224;52.462;16.898;2022-09-09T09:42:15;100018.45;;;21.66;100.00
32873;BME280;19224;52.462;16.898;2022-09-09T09:44:47;100016.87;;;21.73;99.75
32873;BME280;19224;52.462;16.898;2022-09-09T09:47:20;100015.89;;;21.97;99.59
32873;BME280;19224;52.462;16.898;2022-09-09T09:49:54;100018.08;;;22.16;97.73
32873;BME280;19224;52.462;16.898;2022-09-09T09:52:31;100013.51;;;22.39;96.38
32873;BME280;19224;52.462;16.898;2022-09-09T09:55:11;100017.66;;;22.53;94.97
32873;BME280;19224;52.462;16.898;2022-09-09T09:57:38;100017.81;;;22.65;94.73
32873;BME280;19224;52.462;16.898;2022-09-09T10:00:18;100015.12;;;22.82;94.12
32873;BME280;19224;52.462;16.898;2022-09-09T10:02:50;100016.33;;;22.97;93.38
32873;BME280;19224;52.462;16.898;2022-09-09T10:05:28;100016.29;;;23.20;91.79
32873;BME280;19224;52.462;16.898;2022-09-09T10:08:16;100014.17;;;23.28;87.73
32873;BME280;19224;52.462;16.898;2022-09-09T10:17:01;100014.09;;;23.55;85.60
32873;BME280;19224;52.462;16.898;2022-09-09T10:19:37;100012.59;;;23.60;83.84
32873;BME280;19224;52.462;16.898;2022-09-09T10:36:43;100026.70;;;23.61;85.54
32873;BME280;19224;52.462;16.898;2022-09-09T10:39:28;100033.57;;;23.61;84.42
32873;BME280;19224;52.462;16.898;2022-09-09T10:42:05;100029.59;;;23.60;81.82
32873;BME280;19224;52.462;16.898;2022-09-09T10:50:47;100040.91;;;23.57;78.70
32873;BME280;19224;52.462;16.898;2022-09-09T10:56:16;100042.59;;;23.67;79.88
32873;BME280;19224;52.462;16.898;2022-09-09T10:58:56;100042.23;;;23.66;80.50
32873;BME280;19224;52.462;16.898;2022-09-09T11:01:47;100038.22;;;23.78;81.91
32873;BME280;19224;52.462;16.898;2022-09-09T11:04:24;100043.78;;;24.04;80.21
32873;BME280;19224;52.462;16.898;2022-09-09T11:06:56;100039.59;;;24.17;79.18
32873;BME280;19224;52.462;16.898;2022-09-09T11:09:32;100033.83;;;24.28;79.21
32873;BME280;19224;52.462;16.898;2022-09-09T11:12:05;100037.67;;;24.35;79.94
32873;BME280;19224;52.462;16.898;2022-09-09T11:14:53;100041.41;;;24.30;78.35
32873;BME280;19224;52.462;16.898;2022-09-09T11:17:25;100042.09;;;24.28;76.65
32873;BME280;19224;52.462;16.898;2022-09-09T11:19:58;100042.78;;;24.30;77.65
32873;BME280;19224;52.462;16.898;2022-09-09T11:22:46;100042.20;;;24.19;76.92
32873;BME280;19224;52.462;16.898;2022-09-09T11:25:42;100037.59;;;24.23;76.81
32873;BME280;19224;52.462;16.898;2022-09-09T11:31:34;100041.34;;;24.44;76.59
32873;BME280;19224;52.462;16.898;2022-09-09T11:40:15;100042.83;;;24.60;69.92
32873;BME280;19224;52.462;16.898;2022-09-09T11:45:41;100045.98;;;24.65;65.68
32873;BME280;19224;52.462;16.898;2022-09-09T11:51:11;100041.39;;;24.52;66.98
32873;BME280;19224;52.462;16.898;2022-09-09T11:53:55;100041.20;;;24.49;67.38
32873;BME280;19224;52.462;16.898;2022-09-09T11:56:42;100035.98;;;24.42;66.33
32873;BME280;19224;52.462;16.898;2022-09-09T11:59:28;100034.45;;;24.44;66.92
32873;BME280;19224;52.462;16.898;2022-09-09T12:02:14;100033.72;;;24.59;67.84
32873;BME280;19224;52.462;16.898;2022-09-09T12:07:41;100032.86;;;24.37;64.97
32873;BME280;19224;52.462;16.898;2022-09-09T12:10:37;100028.17;;;24.30;66.69
32873;BME280;19224;52.462;16.898;2022-09-09T12:13:22;100024.89;;;24.30;66.12
32873;BME280;19224;52.462;16.898;2022-09-09T12:15:59;100020.33;;;24.17;65.56
32873;BME280;19224;52.462;16.898;2022-09-09T12:18:38;100020.66;;;24.14;64.03
32873;BME280;19224;52.462;16.898;2022-09-09T12:21:33;100020.44;;;24.08;63.48
32873;BME280;19224;52.462;16.898;2022-09-09T12:24:07;100018.75;;;24.15;63.91
32873;BME280;19224;52.462;16.898;2022-09-09T12:29:55;100015.99;;;24.36;68.35
32873;BME280;19224;52.462;16.898;2022-09-09T12:32:30;100019.11;;;24.41;66.55
32873;BME280;19224;52.462;16.898;2022-09-09T12:35:21;100013.30;;;24.44;67.18
32873;BME280;19224;52.462;16.898;2022-09-09T12:38:03;100007.40;;;24.39;64.45
32873;BME280;19224;52.462;16.898;2022-09-09T12:40:42;100003.60;;;24.36;64.69
32873;BME280;19224;52.462;16.898;2022-09-09T12:43:25;100002.77;;;24.40;63.99
32873;BME280;19224;52.462;16.898;2022-09-09T12:46:03;100006.77;;;24.49;63.04
32873;BME280;19224;52.462;16.898;2022-09-09T12:48:59;100006.36;;;24.36;62.84
32873;BME280;19224;52.462;16.898;2022-09-09T12:51:33;100003.28;;;24.43;63.18
32873;BME280;19224;52.462;16.898;2022-09-09T12:54:06;100011.02;;;24.65;63.26
32873;BME280;19224;52.462;16.898;2022-09-09T12:56:38;99996.80;;;24.81;63.30
32873;BME280;19224;52.462;16.898;2022-09-09T12:59:24;99998.11;;;25.03;62.27
32873;BME280;19224;52.462;16.898;2022-09-09T13:01:59;100002.20;;;24.91;58.75
32873;BME280;19224;52.462;16.898;2022-09-09T13:04:34;100004.66;;;25.02;57.12
32873;BME280;19224;52.462;16.898;2022-09-09T13:07:14;99998.52;;;25.20;57.61
32873;BME280;19224;52.462;16.898;2022-09-09T13:09:47;100009.08;;;25.36;58.18
32873;BME280;19224;52.462;16.898;2022-09-09T13:12:23;100005.81;;;25.41;58.17
32873;BME280;19224;52.462;16.898;2022-09-09T13:14:59;100002.72;;;25.36;57.39
32873;BME280;19224;52.462;16.898;2022-09-09T13:17:33;100007.36;;;25.27;57.38
32873;BME280;19224;52.462;16.898;2022-09-09T13:20:04;100003.37;;;25.30;57.50
32873;BME280;19224;52.462;16.898;2022-09-09T13:22:37;100004.47;;;25.61;57.37
32873;BME280;19224;52.462;16.898;2022-09-09T13:25:20;99995.89;;;25.96;55.91
32873;BME280;19224;52.462;16.898;2022-09-09T13:28:04;99998.28;;;25.83;54.52
32873;BME280;19224;52.462;16.898;2022-09-09T13:30:40;100002.05;;;25.46;54.12
32873;BME280;19224;52.462;16.898;2022-09-09T13:35:58;100004.12;;;25.44;55.95
32873;BME280;19224;52.462;16.898;2022-09-09T13:38:38;99990.04;;;25.91;55.76
32873;BME280;19224;52.462;16.898;2022-09-09T13:41:10;99991.73;;;26.24;54.46
32873;BME280;19224;52.462;16.898;2022-09-09T13:43:46;99993.34;;;26.73;52.76
32873;BME280;19224;52.462;16.898;2022-09-09T13:46:41;99995.36;;;26.91;49.35
32873;BME280;19224;52.462;16.898;2022-09-09T13:49:26;99994.31;;;26.92;47.97
32873;BME280;19224;52.462;16.898;2022-09-09T13:52:11;100003.56;;;26.72;50.67
32873;BME280;19224;52.462;16.898;2022-09-09T13:54:42;100001.89;;;26.39;52.61
32873;BME280;19224;52.462;16.898;2022-09-09T13:57:24;99997.59;;;26.17;53.91
32873;BME280;19224;52.462;16.898;2022-09-09T13:59:56;99992.44;;;25.86;53.70
32873;BME280;19224;52.462;16.898;2022-09-09T14:02:27;100000.00;;;25.56;54.80
32873;BME280;19224;52.462;16.898;2022-09-09T14:04:59;99991.87;;;25.38;56.52
32873;BME280;19224;52.462;16.898;2022-09-09T14:07:30;99987.17;;;25.31;57.27
32873;BME280;19224;52.462;16.898;2022-09-09T14:10:01;99982.38;;;25.37;58.05
32873;BME280;19224;52.462;16.898;2022-09-09T14:12:32;99977.03;;;25.47;58.49
32873;BME280;19224;52.462;16.898;2022-09-09T14:15:06;99979.95;;;25.42;58.35
32873;BME280;19224;52.462;16.898;2022-09-09T14:17:36;99977.36;;;25.36;57.24
32873;BME280;19224;52.462;16.898;2022-09-09T14:20:09;99974.08;;;25.25;55.94
32873;BME280;19224;52.462;16.898;2022-09-09T14:22:41;99972.61;;;25.09;55.07
32873;BME280;19224;52.462;16.898;2022-09-09T14:25:13;99981.88;;;24.92;56.25
32873;BME280;19224;52.462;16.898;2022-09-09T14:27:45;99982.17;;;24.81;57.63
32873;BME280;19224;52.462;16.898;2022-09-09T14:30:17;99981.98;;;24.78;57.97
32873;BME280;19224;52.462;16.898;2022-09-09T14:32:53;99973.03;;;24.80;59.04
32873;BME280;19224;52.462;16.898;2022-09-09T14:35:23;99979.69;;;25.15;58.42
32873;BME280;19224;52.462;16.898;2022-09-09T14:37:57;99974.65;;;25.64;57.32
32873;BME280;19224;52.462;16.898;2022-09-09T14:40:28;99981.03;;;26.09;55.46
32873;BME280;19224;52.462;16.898;2022-09-09T14:42:58;99983.05;;;26.59;54.14
32873;BME280;19224;52.462;16.898;2022-09-09T14:45:31;99981.76;;;26.77;52.70
32873;BME280;19224;52.462;16.898;2022-09-09T14:48:04;99979.45;;;26.93;51.81
32873;BME280;19224;52.462;16.898;2022-09-09T14:50:36;99981.27;;;27.08;51.93
32873;BME280;19224;52.462;16.898;2022-09-09T14:53:12;99984.72;;;27.10;52.25
32873;BME280;19224;52.462;16.898;2022-09-09T14:55:44;99990.08;;;27.16;52.18
32873;BME280;19224;52.462;16.898;2022-09-09T14:58:22;99998.97;;;26.91;51.92
32873;BME280;19224;52.462;16.898;2022-09-09T15:00:53;99996.72;;;26.95;52.31
32873;BME280;19224;52.462;16.898;2022-09-09T15:03:24;99979.52;;;27.11;51.13
32873;BME280;19224;52.462;16.898;2022-09-09T15:05:55;99978.36;;;27.36;50.43
32873;BME280;19224;52.462;16.898;2022-09-09T15:08:29;99977.64;;;27.64;50.21